Time;durP1;ratioP1;P1;durP2;ratioP2;P2;SDS_P1;SDS_P2;PMS_P1;PMS_P2;Temp;Humidity;BMP_temperature;BMP_pressure;BME280_temperature;BME280_humidity;BME280_pressure;Samples;Min_cycle;Max_cycle;Signal;HPM_P1;HPM_P2
2023/07/31 00:01:40;;;;;;;;;6.67;5.00;;;;;25.74;58.75;100793.72;6220732;22;45256;-83
2023/07/31 00:04:06;;;;;;;;;8.67;6.00;;;;;25.77;58.64;100794.53;6247996;22;45207;-83
2023/07/31 00:06:31;;;;;;;;;5.00;5.00;;;;;25.84;58.32;100796.91;6255023;22;44757;-81
2023/07/31 00:08:56;;;;;;;;;4.25;4.00;;;;;25.80;58.69;100798.00;6200786;22;47464;-81
2023/07/31 00:11:22;;;;;;;;;5.33;5.33;;;;;25.74;58.59;100791.00;6253445;22;44866;-81
2023/07/31 00:13:47;;;;;;;;;5.00;5.00;;;;;25.81;58.46;100801.59;6225375;22;44731;-81
2023/07/31 00:16:13;;;;;;;;;6.67;5.00;;;;;25.81;58.16;100788.88;6227235;22;44876;-81
2023/07/31 00:18:38;;;;;;;;;7.75;6.50;;;;;25.79;58.59;100784.47;6227812;22;47291;-81
2023/07/31 00:21:03;;;;;;;;;5.33;5.33;;;;;25.83;58.44;100784.22;6255831;22;44761;-80
2023/07/31 00:23:29;;;;;;;;;5.33;5.33;;;;;25.73;58.64;100778.38;6255407;22;44848;-81
2023/07/31 00:25:54;;;;;;;;;4.33;4.33;;;;;25.75;58.61;100775.53;6227992;22;44740;-81
2023/07/31 00:31:41;;;;;;;;;5.33;5.00;;;;;25.66;58.58;100765.97;6246216;22;45340;-80
2023/07/31 00:34:07;;;;;;;;;6.33;5.00;;;;;25.63;58.31;100763.44;6246416;22;45277;-80
2023/07/31 00:36:32;;;;;;;;;4.33;4.33;;;;;25.54;58.31;100752.97;6222614;22;45547;-83
2023/07/31 00:38:58;;;;;;;;;5.00;5.00;;;;;25.60;58.92;100759.97;6219371;22;46678;-83
2023/07/31 00:44:45;;;;;;;;;3.00;3.00;;;;;25.50;58.31;100767.69;6253923;22;44783;-81
2023/07/31 00:47:10;;;;;;;;;6.00;4.67;;;;;25.61;58.56;100762.63;6227400;22;44816;-81
2023/07/31 00:49:36;;;;;;;;;5.67;5.67;;;;;25.60;58.07;100766.28;6250274;22;45054;-83
2023/07/31 00:52:02;;;;;;;;;5.67;3.67;;;;;25.54;57.86;100756.56;6248835;22;45285;-83
2023/07/31 00:54:29;;;;;;;;;8.00;4.33;;;;;25.72;57.56;100762.97;6218515;22;44790;-80
2023/07/31 00:56:54;;;;;;;;;4.00;4.00;;;;;25.46;58.06;100769.66;6229238;22;44732;-82
2023/07/31 00:59:20;;;;;;;;;5.67;2.00;;;;;25.54;57.95;100766.59;6259628;22;45340;-81
2023/07/31 01:01:46;;;;;;;;;4.00;4.00;;;;;25.54;57.92;100750.25;6228153;22;44789;-81
2023/07/31 01:04:12;;;;;;;;;3.00;3.00;;;;;25.54;58.15;100751.13;6203479;22;45380;-80
2023/07/31 01:07:02;;;;;;;;;4.00;4.00;;;;;25.98;56.81;100751.78;6257172;22;44766;-81
2023/07/31 01:09:33;;;;;;;;;4.00;3.00;;;;;25.85;57.18;100740.56;6233088;22;47031;-82
2023/07/31 01:12:04;;;;;;;;;5.00;4.00;;;;;25.84;57.18;100739.69;6261688;22;45236;-82
2023/07/31 01:14:29;;;;;;;;;4.00;4.00;;;;;25.48;57.63;100729.63;6260356;22;44845;-82
2023/07/31 01:16:55;;;;;;;;;5.67;5.33;;;;;25.48;57.04;100721.47;6230642;22;45280;-81
2023/07/31 01:19:24;;;;;;;;;5.00;4.33;;;;;25.71;57.40;100720.34;6245664;22;45414;-80
2023/07/31 01:22:12;;;;;;;;;3.33;3.33;;;;;25.44;57.35;100713.53;6219485;22;45316;-80
2023/07/31 01:25:23;;;;;;;;;4.67;4.67;;;;;25.79;56.91;100709.03;6230660;22;45351;-81
2023/07/31 01:28:18;;;;;;;;;4.33;4.00;;;;;25.72;57.13;100713.06;6230091;22;45230;-81
2023/07/31 01:30:48;;;;;;;;;5.00;3.67;;;;;25.56;57.21;100715.66;6257807;22;46726;-82
2023/07/31 01:33:15;;;;;;;;;2.67;2.67;;;;;25.46;57.21;100719.78;6233955;22;44739;-81
2023/07/31 01:35:47;;;;;;;;;4.33;4.33;;;;;25.65;56.68;100712.47;6234095;22;44744;-81
2023/07/31 01:38:12;;;;;;;;;3.00;3.00;;;;;25.34;56.73;100705.78;6260166;22;44840;-81
2023/07/31 01:40:41;;;;;;;;;3.00;3.00;;;;;25.54;57.16;100717.56;6232491;22;47186;-81
2023/07/31 01:43:06;;;;;;;;;3.33;2.67;;;;;25.30;57.16;100719.63;6259277;22;44915;-82
2023/07/31 01:45:32;;;;;;;;;4.33;3.00;;;;;25.29;57.18;100707.00;6261911;22;44820;-82
2023/07/31 01:47:57;;;;;;;;;1.67;1.67;;;;;25.30;56.52;100704.16;6260147;22;44868;-82
2023/07/31 01:50:23;;;;;;;;;3.75;3.75;;;;;25.26;56.83;100708.00;6260420;22;45310;-82
2023/07/31 01:52:48;;;;;;;;;3.00;3.00;;;;;25.23;56.83;100707.25;6234490;22;44802;-82
2023/07/31 01:55:13;;;;;;;;;3.25;3.00;;;;;25.32;56.72;100709.53;6261577;22;44840;-82
2023/07/31 01:57:43;;;;;;;;;3.00;3.00;;;;;25.28;57.00;100707.94;6261277;22;44779;-81
2023/07/31 02:00:08;;;;;;;;;4.67;4.33;;;;;25.30;56.82;100711.47;6259830;22;45120;-82
2023/07/31 02:02:34;;;;;;;;;2.25;2.25;;;;;25.26;56.28;100705.28;6231860;22;44804;-81
2023/07/31 02:04:59;;;;;;;;;5.33;5.33;;;;;25.29;56.21;100702.41;6232243;22;44709;-82
2023/07/31 02:07:30;;;;;;;;;3.75;2.00;;;;;25.28;55.19;100707.94;6232443;22;45487;-82
2023/07/31 02:09:56;;;;;;;;;2.25;2.25;;;;;25.25;55.48;100702.63;6260260;22;45826;-82
2023/07/31 02:15:44;;;;;;;;;1.75;1.75;;;;;25.15;56.27;100692.16;6247664;22;44867;-83
2023/07/31 02:18:10;;;;;;;;;2.75;2.00;;;;;25.12;55.84;100703.16;6220237;22;45403;-83
2023/07/31 02:20:35;;;;;;;;;2.00;2.00;;;;;25.09;56.00;100688.84;6218590;22;47227;-83
2023/07/31 02:23:01;;;;;;;;;4.00;3.00;;;;;25.12;55.34;100683.25;6217920;22;45412;-84
2023/07/31 02:25:26;;;;;;;;;2.00;2.00;;;;;25.04;56.11;100686.31;6219345;22;45353;-84
2023/07/31 02:27:52;;;;;;;;;3.00;1.25;;;;;25.03;55.83;100683.69;6218037;22;45813;-84
2023/07/31 02:30:17;;;;;;;;;3.00;1.75;;;;;24.93;55.84;100683.22;6219521;22;46160;-83
2023/07/31 02:32:43;;;;;;;;;3.00;1.00;;;;;24.79;55.81;100667.56;6219576;22;44895;-84
2023/07/31 02:35:09;;;;;;;;;2.00;2.00;;;;;24.85;56.02;100664.53;6220911;22;45422;-83
2023/07/31 02:37:36;;;;;;;;;2.00;2.00;;;;;24.87;56.13;100670.78;6219792;22;44886;-85
2023/07/31 02:40:01;;;;;;;;;1.00;1.00;;;;;24.85;55.77;100661.81;6219441;22;45593;-85
2023/07/31 02:42:26;;;;;;;;;2.00;2.00;;;;;24.86;56.28;100666.28;6219702;22;45533;-83
2023/07/31 02:44:55;;;;;;;;;2.00;2.00;;;;;24.86;55.86;100663.56;6248111;22;46884;-84
2023/07/31 02:47:22;;;;;;;;;2.00;2.00;;;;;24.94;55.99;100669.56;6220209;22;45233;-84
2023/07/31 02:49:47;;;;;;;;;1.50;1.50;;;;;24.74;55.63;100651.44;6248460;22;45332;-84
2023/07/31 02:52:13;;;;;;;;;3.00;3.00;;;;;24.82;55.67;100647.47;6220423;22;45745;-84
2023/07/31 02:54:38;;;;;;;;;4.00;3.00;;;;;24.78;55.96;100645.84;6248898;22;45424;-83
2023/07/31 02:57:04;;;;;;;;;1.00;1.00;;;;;24.83;55.84;100639.25;6221813;22;45585;-84
2023/07/31 02:59:30;;;;;;;;;1.00;1.00;;;;;24.84;55.12;100641.00;6251110;22;45453;-83
2023/07/31 03:02:02;;;;;;;;;2.00;2.00;;;;;25.21;55.01;100655.63;6250061;22;44868;-83
2023/07/31 03:04:27;;;;;;;;;1.67;1.67;;;;;24.84;55.42;100646.44;6221325;22;44822;-83
2023/07/31 03:06:53;;;;;;;;;3.00;2.00;;;;;24.87;54.63;100645.44;6225771;22;45397;-81
2023/07/31 03:09:18;;;;;;;;;2.00;2.00;;;;;24.80;54.86;100652.97;6228137;22;46577;-81
2023/07/31 03:11:44;;;;;;;;;1.00;1.00;;;;;24.83;55.30;100662.84;6252821;22;44905;-81
2023/07/31 03:14:09;;;;;;;;;2.00;2.00;;;;;24.80;54.86;100663.84;6259252;22;45016;-82
2023/07/31 03:16:35;;;;;;;;;2.00;2.00;;;;;24.78;55.04;100656.72;6234310;22;44811;-81
2023/07/31 03:19:00;;;;;;;;;1.00;1.00;;;;;24.80;54.93;100652.97;6258382;22;46946;-82
2023/07/31 03:21:25;;;;;;;;;1.00;1.00;;;;;24.80;55.09;100649.38;6259284;22;44777;-82
2023/07/31 03:23:51;;;;;;;;;2.00;2.00;;;;;24.78;54.64;100652.16;6258403;22;45202;-82
2023/07/31 03:26:16;;;;;;;;;2.67;2.67;;;;;24.85;55.08;100658.22;6258151;22;44780;-82
2023/07/31 03:28:42;;;;;;;;;1.25;1.25;;;;;24.88;54.87;100653.50;6260463;22;45434;-82
2023/07/31 03:31:08;;;;;;;;;2.00;2.00;;;;;24.84;54.90;100646.44;6232126;22;45220;-82
2023/07/31 03:33:33;;;;;;;;;1.67;1.67;;;;;24.78;54.80;100644.00;6257475;22;44778;-81
2023/07/31 03:35:59;;;;;;;;;2.00;2.00;;;;;24.82;54.92;100642.91;6260513;22;45338;-82
2023/07/31 03:38:24;;;;;;;;;2.75;2.75;;;;;24.74;54.73;100636.94;6259286;22;45009;-80
2023/07/31 03:40:52;;;;;;;;;3.75;2.25;;;;;24.94;54.80;100630.56;6260367;22;45233;-82
2023/07/31 03:43:17;;;;;;;;;2.75;2.00;;;;;24.68;54.94;100642.66;6233035;22;44787;-82
2023/07/31 03:45:43;;;;;;;;;1.00;1.00;;;;;24.78;54.83;100640.41;6260787;22;44812;-82
2023/07/31 03:48:09;;;;;;;;;2.00;2.00;;;;;24.67;54.83;100644.50;6234917;22;46482;-82
2023/07/31 03:50:34;;;;;;;;;2.00;2.00;;;;;24.69;54.45;100631.72;6233846;22;44877;-82
2023/07/31 03:53:00;;;;;;;;;2.00;1.00;;;;;24.61;55.07;100630.34;6235278;22;44785;-82
2023/07/31 03:55:25;;;;;;;;;2.00;2.00;;;;;24.69;55.26;100636.28;6235395;22;45310;-82
2023/07/31 03:57:53;;;;;;;;;1.00;1.00;;;;;24.66;55.04;100626.44;6258376;22;47295;-81
2023/07/31 04:00:20;;;;;;;;;2.33;2.33;;;;;24.64;54.76;100622.00;6234007;22;44867;-81
2023/07/31 04:02:47;;;;;;;;;2.25;1.25;;;;;24.55;54.34;100621.47;6261778;22;44912;-82
2023/07/31 04:05:12;;;;;;;;;3.25;3.25;;;;;24.57;54.22;100628.72;6260880;22;44731;-81
2023/07/31 04:07:37;;;;;;;;;3.33;2.67;;;;;24.60;54.17;100623.97;6230351;22;47184;-81
2023/07/31 04:10:06;;;;;;;;;4.33;2.67;;;;;24.63;53.61;100629.28;6231331;22;45378;-81
2023/07/31 04:13:27;;;;;;;;;2.00;2.00;;;;;24.97;53.35;100627.72;6231750;22;44773;-80
2023/07/31 04:15:54;;;;;;;;;2.33;2.00;;;;;24.52;53.77;100628.88;6232004;22;45003;-81
2023/07/31 04:18:20;;;;;;;;;5.33;4.33;;;;;24.57;53.87;100626.00;6231857;22;47000;-81
2023/07/31 04:20:45;;;;;;;;;2.00;2.00;;;;;24.54;53.61;100632.41;6233508;22;44982;-81
2023/07/31 04:23:11;;;;;;;;;2.33;2.33;;;;;24.60;53.24;100631.25;6257330;22;44970;-80
2023/07/31 04:25:36;;;;;;;;;4.00;3.67;;;;;24.54;54.00;100625.19;6232166;22;44907;-80
2023/07/31 04:28:02;;;;;;;;;4.00;2.00;;;;;24.59;53.52;100619.50;6231769;22;47086;-82
2023/07/31 04:30:27;;;;;;;;;4.00;4.00;;;;;24.62;53.31;100618.47;6231372;22;44826;-81
2023/07/31 04:32:52;;;;;;;;;5.33;5.00;;;;;24.61;53.30;100616.72;6260921;22;44893;-81
2023/07/31 04:35:18;;;;;;;;;2.00;2.00;;;;;24.46;53.27;100618.25;6234754;22;44808;-81
2023/07/31 04:37:48;;;;;;;;;4.00;3.33;;;;;24.70;53.82;100619.00;6259407;22;45139;-81
2023/07/31 04:40:14;;;;;;;;;4.33;3.00;;;;;24.48;53.79;100622.72;6232607;22;44865;-82
2023/07/31 04:42:39;;;;;;;;;4.00;2.67;;;;;24.47;53.90;100622.78;6259871;22;44909;-81
2023/07/31 04:45:05;;;;;;;;;4.00;1.67;;;;;24.50;54.38;100629.00;6261599;22;44743;-81
2023/07/31 04:47:30;;;;;;;;;3.00;3.00;;;;;24.49;54.27;100629.00;6260785;22;44855;-81
2023/07/31 04:49:57;;;;;;;;;7.00;4.00;;;;;24.69;54.71;100630.84;6260701;22;44764;-82
2023/07/31 04:52:23;;;;;;;;;4.33;3.67;;;;;24.49;54.21;100629.88;6260546;22;45071;-81
2023/07/31 04:54:48;;;;;;;;;2.00;2.00;;;;;24.46;54.54;100635.50;6232974;22;44808;-82
2023/07/31 04:57:14;;;;;;;;;4.00;4.00;;;;;24.52;54.85;100627.09;6232190;22;47141;-83
2023/07/31 04:59:39;;;;;;;;;2.00;2.00;;;;;24.50;54.77;100622.66;6232835;22;44697;-82
2023/07/31 05:02:05;;;;;;;;;5.33;4.33;;;;;24.59;55.02;100626.81;6226733;22;45309;-81
2023/07/31 05:04:30;;;;;;;;;5.33;4.33;;;;;24.52;55.30;100616.22;6223458;22;45269;-82
2023/07/31 05:06:56;;;;;;;;;7.00;4.67;;;;;24.60;55.13;100615.81;6224402;22;47311;-82
2023/07/31 05:09:21;;;;;;;;;3.00;3.00;;;;;24.62;55.24;100626.63;6222862;22;44764;-82
2023/07/31 05:11:46;;;;;;;;;4.75;4.75;;;;;24.55;55.18;100613.34;6222380;22;44914;-82
2023/07/31 05:17:34;;;;;;;;;4.67;4.00;;;;;24.56;55.50;100616.91;6252955;22;44789;-80
2023/07/31 05:19:59;;;;;;;;;5.67;4.00;;;;;24.54;56.09;100621.56;6249574;22;44716;-81
2023/07/31 05:22:24;;;;;;;;;5.00;4.33;;;;;24.57;56.07;100626.84;6250795;22;44982;-80
2023/07/31 05:24:50;;;;;;;;;5.67;5.00;;;;;24.59;56.04;100624.94;6223323;22;44837;-80
2023/07/31 05:27:18;;;;;;;;;3.00;3.00;;;;;24.59;56.25;100621.34;6250571;22;45012;-80
2023/07/31 05:29:44;;;;;;;;;4.00;3.67;;;;;24.67;56.49;100606.44;6223611;22;44873;-80
2023/07/31 05:32:10;;;;;;;;;8.00;4.67;;;;;24.68;56.34;100607.31;6223153;22;44800;-80
2023/07/31 05:34:35;;;;;;;;;4.33;4.33;;;;;24.65;56.22;100611.06;6249273;22;44797;-80
2023/07/31 05:37:01;;;;;;;;;5.67;5.67;;;;;24.62;56.48;100603.06;6195949;22;47542;-81
2023/07/31 05:39:26;;;;;;;;;5.67;5.67;;;;;24.71;56.84;100604.47;6222146;22;44785;-81
2023/07/31 05:41:51;;;;;;;;;7.00;6.33;;;;;24.74;56.76;100585.28;6223668;22;44830;-81
2023/07/31 05:44:20;;;;;;;;;6.00;4.00;;;;;24.97;56.79;100586.91;6221672;22;44817;-81
2023/07/31 05:46:45;;;;;;;;;6.67;6.67;;;;;24.65;56.84;100586.59;6251676;22;45269;-80
2023/07/31 05:52:36;;;;;;;;;5.33;4.00;;;;;24.65;57.61;100580.28;6265177;22;44725;-82
2023/07/31 05:55:02;;;;;;;;;7.67;5.67;;;;;24.65;57.65;100572.13;6237080;22;44882;-81
2023/07/31 05:57:28;;;;;;;;;6.00;4.00;;;;;24.68;57.71;100570.16;6237643;22;47340;-81
2023/07/31 05:59:54;;;;;;;;;6.67;6.00;;;;;24.87;57.79;100570.13;6245966;22;45668;-81
2023/07/31 06:02:23;;;;;;;;;5.00;5.00;;;;;24.67;57.69;100567.50;6265619;22;44758;-81
2023/07/31 06:04:50;;;;;;;;;4.67;3.33;;;;;24.86;57.51;100559.31;6254468;22;45178;-82
2023/07/31 06:07:16;;;;;;;;;9.00;8.00;;;;;24.58;57.96;100557.03;6236911;22;47018;-82
2023/07/31 06:09:44;;;;;;;;;6.67;6.00;;;;;24.54;57.67;100540.88;6263893;22;44772;-83
2023/07/31 06:12:19;;;;;;;;;6.33;6.00;;;;;24.79;58.17;100576.91;6236975;22;44748;-89
2023/07/31 06:17:21;;;;;;;;;9.67;7.00;;;;;25.01;57.94;100533.22;6235336;22;45291;-91
2023/07/31 06:22:29;;;;;;;;;17.33;13.67;;;;;25.02;57.21;100545.88;6222133;22;46686;-88
2023/07/31 06:25:02;;;;;;;;;6.33;6.00;;;;;25.29;57.16;100554.53;6205604;22;44784;-89
2023/07/31 06:27:28;;;;;;;;;8.33;7.00;;;;;24.78;57.80;100543.38;6181304;22;45329;-89
2023/07/31 06:29:54;;;;;;;;;9.00;8.33;;;;;24.93;57.74;100580.72;6207833;22;44865;-90
2023/07/31 06:32:19;;;;;;;;;6.33;6.33;;;;;24.89;58.40;100584.56;6181786;22;44699;-89
2023/07/31 06:34:45;;;;;;;;;5.33;5.33;;;;;24.94;58.20;100566.19;6208368;22;44856;-90
2023/07/31 06:37:10;;;;;;;;;7.33;6.33;;;;;25.01;58.25;100565.88;6207525;22;46765;-89
2023/07/31 06:39:35;;;;;;;;;10.33;9.00;;;;;25.03;58.28;100563.97;6182756;22;44851;-88
2023/07/31 06:42:02;;;;;;;;;8.00;7.33;;;;;24.83;57.65;100535.88;6232905;22;44807;-85
2023/07/31 06:45:23;;;;;;;;;7.67;6.00;;;;;25.45;57.22;100569.16;6205241;22;45134;-89
2023/07/31 06:47:49;;;;;;;;;8.67;7.00;;;;;24.97;58.16;100567.00;6206340;22;47133;-88
2023/07/31 06:50:18;;;;;;;;;8.67;8.00;;;;;25.11;58.07;100542.69;6208297;22;44854;-90
2023/07/31 06:52:46;;;;;;;;;7.00;6.00;;;;;25.04;58.37;100552.13;6206541;22;44860;-89
2023/07/31 06:55:28;;;;;;;;;7.00;7.00;;;;;25.32;58.23;100566.13;6230828;22;44902;-82
2023/07/31 06:58:27;;;;;;;;;7.00;5.33;;;;;25.57;57.72;100575.78;6204537;22;46805;-84
2023/07/31 07:00:58;;;;;;;;;8.33;7.33;;;;;25.71;57.93;100578.72;6206682;22;44783;-83
2023/07/31 07:03:25;;;;;;;;;9.00;7.00;;;;;25.48;57.54;100565.38;6231969;22;44860;-82
2023/07/31 07:06:12;;;;;;;;;9.00;9.00;;;;;25.91;57.10;100553.16;6234900;22;44797;-83
2023/07/31 07:08:43;;;;;;;;;7.67;5.67;;;;;25.92;57.32;100556.78;6207272;22;47121;-82
2023/07/31 07:11:17;;;;;;;;;7.33;6.33;;;;;25.96;57.33;100563.84;6236426;22;44831;-81
2023/07/31 08:36:51;;;;;;;;;5.00;5.00;;;;;28.16;50.19;100473.81;6149807;22;47113;-82
2023/07/31 09:03:04;;;;;;;;;8.00;7.00;;;;;27.95;50.96;100474.19;6288118;22;45559;-83
2023/07/31 09:05:41;;;;;;;;;7.67;5.67;;;;;28.06;52.10;100511.81;6295644;22;44796;-83
2023/07/31 09:08:26;;;;;;;;;6.33;6.00;;;;;28.00;51.71;100480.28;6238759;22;46874;-84
2023/07/31 10:33:28;;;;;;;;;;;;;;;;;;;;;
2023/07/31 10:53:16;;;;;;;;;8.33;6.67;;;;;27.70;59.45;100455.72;6236833;22;46402;-85
2023/07/31 10:56:52;;;;;;;;;6.67;5.67;;;;;27.58;59.01;100453.72;6190984;22;44813;-85
2023/07/31 11:02:59;;;;;;;;;13.33;9.00;;;;;27.05;60.30;100431.41;6049850;23;45348;-85
2023/07/31 11:09:40;;;;;;;;;;;;;;;;;;;;;
2023/07/31 11:12:31;;;;;;;;;8.00;5.00;;;;;27.03;61.98;100449.72;6045314;23;64920;-86
2023/07/31 11:23:38;;;;;;;;;5.67;5.67;;;;;27.10;62.66;100448.38;6290578;22;45209;-86
2023/07/31 11:28:56;;;;;;;;;5.67;5.67;;;;;26.90;63.10;100417.69;6325075;22;45165;-82
2023/07/31 11:32:07;;;;;;;;;7.00;6.00;;;;;27.05;63.44;100442.31;6327006;22;44803;-81
2023/07/31 11:45:35;;;;;;;;;6.67;6.33;;;;;27.24;62.65;100451.19;6161822;23;44970;-83
2023/07/31 13:18:43;;;;;;;;;7.33;6.00;;;;;28.33;59.49;100276.69;6259543;22;44895;-83
2023/07/31 13:21:29;;;;;;;;;7.00;5.00;;;;;28.39;59.22;100284.50;6256714;22;44840;-81
2023/07/31 13:24:20;;;;;;;;;8.33;7.00;;;;;28.08;59.59;100285.69;6255000;22;45332;-80
2023/07/31 13:26:59;;;;;;;;;;;;;;;;;;;;;
2023/07/31 13:29:43;;;;;;;;;7.33;7.33;;;;;28.62;58.48;100293.03;6258278;22;68216;-81
2023/07/31 13:32:13;;;;;;;;;7.00;7.00;;;;;28.06;58.66;100274.84;6260819;22;44954;-79
2023/07/31 13:34:42;;;;;;;;;7.33;7.33;;;;;28.17;59.19;100243.19;6262091;22;45255;-81
2023/07/31 13:37:07;;;;;;;;;7.67;6.67;;;;;27.91;59.77;100279.47;6258898;22;44864;-81
2023/07/31 13:40:27;;;;;;;;;6.67;5.00;;;;;28.21;59.30;100280.28;6259990;22;45302;-82
2023/07/31 13:42:56;;;;;;;;;6.00;6.00;;;;;27.83;61.35;100281.78;6259154;22;44818;-79
2023/07/31 13:45:30;;;;;;;;;5.75;5.75;;;;;27.40;64.22;100267.31;6260558;22;45085;-80
2023/07/31 13:48:03;;;;;;;;;4.25;4.25;;;;;27.51;64.44;100249.25;6259954;22;44812;-79
2023/07/31 13:50:58;;;;;;;;;8.33;6.00;;;;;27.41;64.97;100269.03;6262148;22;44653;-80
2023/07/31 13:53:24;;;;;;;;;5.50;4.75;;;;;26.79;65.53;100242.84;6258480;22;44794;-79
2023/07/31 13:55:56;;;;;;;;;5.00;4.67;;;;;27.03;65.23;100231.38;6252773;22;47226;-80
2023/07/31 13:58:28;;;;;;;;;3.50;3.50;;;;;27.21;65.94;100271.16;6250066;22;44857;-80
2023/07/31 14:00:56;;;;;;;;;5.75;4.00;;;;;26.85;66.38;100261.56;6255437;22;45220;-80
2023/07/31 14:03:25;;;;;;;;;5.50;4.75;;;;;27.05;66.77;100246.69;6257529;22;44879;-78
2023/07/31 14:05:55;;;;;;;;;4.00;4.00;;;;;26.95;67.12;100223.66;6255401;22;46551;-79
2023/07/31 14:08:24;;;;;;;;;7.00;6.00;;;;;27.03;67.26;100259.53;6258681;22;45335;-79
2023/07/31 14:11:08;;;;;;;;;8.00;5.67;;;;;26.84;67.81;100227.03;6261261;22;44743;-79
2023/07/31 14:13:34;;;;;;;;;6.67;5.33;;;;;27.08;66.63;100267.44;6258225;22;44860;-80
2023/07/31 14:16:00;;;;;;;;;4.00;4.00;;;;;26.79;68.25;100241.97;6253954;22;45136;-81
2023/07/31 14:18:49;;;;;;;;;5.33;4.67;;;;;27.08;68.62;100256.50;6250027;22;44803;-81
2023/07/31 14:21:29;;;;;;;;;8.00;6.00;;;;;26.97;69.76;100259.06;6250799;22;45411;-82
2023/07/31 14:24:24;;;;;;;;;7.00;7.00;;;;;26.80;70.27;100211.84;6252303;22;44757;-79
2023/07/31 14:26:49;;;;;;;;;7.25;5.75;;;;;26.73;68.87;100224.13;6252735;22;45041;-80
2023/07/31 14:29:14;;;;;;;;;7.67;7.67;;;;;26.63;70.38;100217.47;6255384;22;44768;-80
2023/07/31 14:31:55;;;;;;;;;6.50;4.25;;;;;27.08;69.65;100223.75;6252507;22;44793;-81
2023/07/31 14:34:23;;;;;;;;;6.00;4.25;;;;;26.72;69.83;100192.34;6255660;22;44918;-82
2023/07/31 14:36:51;;;;;;;;;5.67;5.00;;;;;26.81;68.96;100183.59;6262739;22;45263;-83
2023/07/31 14:39:35;;;;;;;;;6.00;6.00;;;;;27.49;68.45;100195.69;6262941;22;45197;-83
2023/07/31 14:42:09;;;;;;;;;6.00;5.25;;;;;27.44;68.12;100165.06;6260155;22;44732;-83
2023/07/31 14:45:40;;;;;;;;;;;;;;;;;;;;;
2023/07/31 14:48:11;;;;;;;;;5.00;5.00;;;;;27.68;67.18;100178.97;6258313;22;74547;-84
2023/07/31 14:50:40;;;;;;;;;5.75;5.75;;;;;27.93;66.75;100157.25;6262717;22;44746;-83
2023/07/31 14:53:13;;;;;;;;;6.25;6.25;;;;;27.59;66.85;100136.75;6260805;22;44840;-83
2023/07/31 14:56:04;;;;;;;;;5.75;5.50;;;;;28.02;66.53;100160.34;6259833;22;45532;-83
2023/07/31 14:58:44;;;;;;;;;4.25;4.25;;;;;27.94;66.51;100152.66;6258165;22;47075;-81
2023/07/31 15:01:09;;;;;;;;;8.67;8.67;;;;;27.51;66.68;100153.66;6253801;22;44756;-82
2023/07/31 15:03:36;;;;;;;;;7.00;6.00;;;;;27.41;66.96;100140.69;6255845;22;44895;-83
2023/07/31 15:06:26;;;;;;;;;5.00;5.00;;;;;27.22;66.97;100130.94;6256503;22;44934;-83
2023/07/31 15:08:50;;;;;;;;;8.67;7.67;;;;;27.28;67.21;100146.94;6257445;22;45022;-84
2023/07/31 15:11:36;;;;;;;;;8.00;6.67;;;;;27.69;66.24;100154.28;6259397;22;44910;-83
2023/07/31 15:17:04;;;;;;;;;7.67;5.67;;;;;27.54;66.60;100166.22;6166367;23;44870;-82
2023/07/31 15:19:34;;;;;;;;;5.00;5.00;;;;;27.41;67.02;100181.66;6193033;23;45472;-81
2023/07/31 15:22:07;;;;;;;;;5.33;5.33;;;;;27.19;66.79;100174.84;6193184;23;44948;-81
2023/07/31 15:24:32;;;;;;;;;4.33;4.33;;;;;26.90;66.91;100176.66;6192808;22;44714;-83
2023/07/31 15:26:58;;;;;;;;;5.00;5.00;;;;;26.85;67.44;100160.59;6192424;22;45212;-83
2023/07/31 15:29:24;;;;;;;;;2.00;2.00;;;;;26.70;67.77;100139.72;6190622;23;45311;-83
2023/07/31 15:32:09;;;;;;;;;6.00;5.33;;;;;26.94;67.21;100129.13;6194121;23;45088;-82
2023/07/31 15:34:44;;;;;;;;;5.67;5.67;;;;;27.05;67.77;100164.78;6244101;22;45070;-82
2023/07/31 15:37:25;;;;;;;;;8.67;7.00;;;;;27.11;66.99;100153.47;6254329;22;44943;-83
2023/07/31 15:39:50;;;;;;;;;5.00;5.00;;;;;26.66;67.36;100138.16;6252300;22;45495;-83
2023/07/31 15:42:16;;;;;;;;;7.00;7.00;;;;;26.77;67.83;100143.84;6255269;22;44717;-83
2023/07/31 15:44:43;;;;;;;;;8.00;8.00;;;;;26.74;67.58;100153.09;6256191;22;44830;-83
2023/07/31 15:47:09;;;;;;;;;7.00;7.00;;;;;26.72;68.39;100151.41;6253949;22;44947;-83
2023/07/31 15:49:34;;;;;;;;;6.33;5.33;;;;;26.53;68.19;100121.66;6253680;22;44987;-83
2023/07/31 15:52:13;;;;;;;;;4.67;4.00;;;;;27.06;67.99;100155.63;6255769;22;45553;-83
2023/07/31 15:55:26;;;;;;;;;6.00;6.00;;;;;27.05;67.82;100158.47;6258309;22;44830;-82
2023/07/31 15:57:55;;;;;;;;;3.67;3.67;;;;;26.63;69.51;100165.66;6234566;22;45366;-82
2023/07/31 16:00:30;;;;;;;;;8.00;6.00;;;;;26.89;69.25;100173.06;6203008;22;45240;-82
2023/07/31 16:02:55;;;;;;;;;4.00;3.25;;;;;26.65;69.09;100155.53;6202908;22;44856;-82
2023/07/31 16:05:25;;;;;;;;;6.67;5.33;;;;;26.58;69.25;100148.69;6202107;22;44785;-82
2023/07/31 16:07:50;;;;;;;;;6.33;6.33;;;;;26.41;69.88;100131.47;6202015;22;44777;-83
2023/07/31 16:10:16;;;;;;;;;5.00;5.00;;;;;26.46;69.89;100144.81;6199014;22;45267;-82
2023/07/31 16:12:42;;;;;;;;;8.00;5.00;;;;;26.44;70.80;100138.59;6194377;23;44681;-82
2023/07/31 16:15:08;;;;;;;;;6.00;6.00;;;;;26.45;71.13;100118.53;6198040;23;44845;-82
2023/07/31 16:17:33;;;;;;;;;6.75;6.25;;;;;26.21;70.40;100097.25;6231588;22;44836;-83
2023/07/31 16:20:00;;;;;;;;;9.00;7.50;;;;;26.49;71.32;100111.91;6202742;22;46638;-83
2023/07/31 16:25:01;;;;;;;;;6.50;6.50;;;;;26.12;72.02;100104.16;6156089;22;46409;-83
2023/07/31 16:27:26;;;;;;;;;6.75;5.00;;;;;26.02;72.02;100096.66;6236567;22;44726;-83
2023/07/31 16:29:59;;;;;;;;;5.25;4.75;;;;;26.29;72.28;100102.25;6232780;22;46457;-84
2023/07/31 16:35:00;;;;;;;;;7.00;7.00;;;;;25.86;73.18;100108.44;6200426;22;44886;-83
2023/07/31 16:37:27;;;;;;;;;5.25;5.25;;;;;25.85;74.06;100103.94;6201256;23;44841;-83
2023/07/31 16:39:53;;;;;;;;;9.00;7.33;;;;;25.87;74.98;100098.41;6172492;22;46746;-83
2023/07/31 16:42:20;;;;;;;;;7.67;6.67;;;;;25.92;75.59;100097.19;6196401;23;44763;-83
2023/07/31 16:44:46;;;;;;;;;7.00;6.67;;;;;25.83;75.90;100086.78;6196207;23;44764;-84
2023/07/31 16:47:14;;;;;;;;;7.00;6.67;;;;;25.78;75.22;100088.94;6169686;23;44785;-84
2023/07/31 16:49:39;;;;;;;;;7.67;7.67;;;;;25.77;76.13;100069.94;6194347;22;46700;-83
2023/07/31 16:52:05;;;;;;;;;10.33;7.00;;;;;25.87;75.44;100071.16;6196787;22;45331;-84
2023/07/31 16:54:32;;;;;;;;;6.33;6.00;;;;;25.73;76.23;100071.97;6196936;23;44733;-84
2023/07/31 17:00:19;;;;;;;;;4.33;3.00;;;;;25.70;76.79;100081.22;6195510;22;45616;-83
2023/07/31 17:02:44;;;;;;;;;9.67;8.33;;;;;25.68;77.20;100074.13;6197919;22;44823;-84
2023/07/31 17:05:11;;;;;;;;;7.00;4.67;;;;;25.71;77.38;100077.53;6195022;22;44706;-84
2023/07/31 17:07:36;;;;;;;;;8.00;8.00;;;;;25.70;77.31;100064.88;6200922;22;44689;-83
2023/07/31 17:10:04;;;;;;;;;7.00;5.00;;;;;25.94;77.04;100061.69;6172279;23;46637;-83
2023/07/31 17:12:31;;;;;;;;;3.67;3.00;;;;;25.66;77.44;100046.09;6170020;23;45147;-85
2023/07/31 17:14:56;;;;;;;;;8.00;7.00;;;;;25.63;77.48;100013.59;6170858;23;45094;-83
2023/07/31 17:17:23;;;;;;;;;5.67;5.67;;;;;25.62;77.69;100023.59;6168858;23;44886;-84
2023/07/31 17:19:49;;;;;;;;;7.00;6.33;;;;;25.61;78.17;100023.69;6193049;23;47531;-84
2023/07/31 17:22:15;;;;;;;;;5.67;5.67;;;;;25.61;78.29;100038.22;6166828;23;44835;-84
2023/07/31 17:24:40;;;;;;;;;4.00;4.00;;;;;25.57;78.25;100031.16;6194587;23;44714;-86
2023/07/31 17:27:06;;;;;;;;;7.67;5.00;;;;;25.61;78.06;100021.88;6194545;22;44875;-83
2023/07/31 17:29:31;;;;;;;;;7.00;7.00;;;;;25.60;78.88;100009.22;6167083;23;47227;-83
2023/07/31 17:31:56;;;;;;;;;8.00;4.67;;;;;25.48;78.87;99993.63;6169274;23;45094;-85
2023/07/31 17:34:22;;;;;;;;;7.67;6.67;;;;;25.54;78.58;99990.53;6183192;22;45083;-84
2023/07/31 17:36:47;;;;;;;;;5.00;5.00;;;;;25.50;78.18;99959.88;6198822;22;44841;-84
2023/07/31 17:39:18;;;;;;;;;4.67;4.00;;;;;25.80;78.00;99955.38;6225217;22;46254;-84
2023/07/31 17:41:44;;;;;;;;;4.67;4.67;;;;;25.47;77.91;99953.72;6199359;22;44866;-84
2023/07/31 17:44:09;;;;;;;;;5.67;5.67;;;;;25.49;78.34;99946.34;6200405;22;45273;-83